createdAt,value
2019-05-21T00:02:57.331Z,95766.12
2019-05-21T00:06:03.920Z,95762.73
2019-05-21T00:09:10.520Z,95774.52
2019-05-21T00:12:17.286Z,95772.13
2019-05-21T00:15:23.905Z,95776.01
2019-05-21T00:18:30.335Z,95770.84
2019-05-21T00:21:37.190Z,95774.69
2019-05-21T00:24:48.432Z,95773.89
2019-05-21T00:28:01.279Z,95770.45
2019-05-21T00:32:03.949Z,95769.63
2019-05-21T00:36:04.935Z,95774.86
2019-05-21T00:40:05.551Z,95772.14
2019-05-21T00:43:12.290Z,95783.65
2019-05-21T00:46:18.798Z,95781.83
2019-05-21T00:49:25.531Z,95780.88
2019-05-21T00:52:32.148Z,95787.48
2019-05-21T00:55:38.771Z,95795.80
2019-05-21T00:58:46.335Z,95799.20
2019-05-21T01:01:53.033Z,95791.76
2019-05-21T01:05:01.353Z,95795.34
2019-05-21T01:08:08.053Z,95806.61
2019-05-21T01:11:14.695Z,95809.72
2019-05-21T01:14:21.255Z,95816.67
2019-05-21T01:17:27.830Z,95815.34
2019-05-21T01:20:34.428Z,95813.95
2019-05-21T01:23:43.798Z,95821.08
2019-05-21T01:26:50.707Z,95818.67
2019-05-21T01:29:57.275Z,95821.81
2019-05-21T01:33:03.741Z,95819.27
2019-05-21T01:36:10.756Z,95819.27
2019-05-21T01:39:17.446Z,95823.28
2019-05-21T01:42:23.981Z,95826.59
2019-05-21T01:45:30.780Z,95826.41
2019-05-21T01:48:37.294Z,95834.03
2019-05-21T01:51:45.058Z,95828.15
2019-05-21T01:54:52.792Z,95827.19
2019-05-21T01:57:59.312Z,95826.02
2019-05-21T02:01:05.970Z,95823.11
2019-05-21T02:04:12.429Z,95821.38
2019-05-21T02:07:18.883Z,95824.86
2019-05-21T02:10:25.568Z,95831.90
2019-05-21T02:13:32.142Z,95826.20
2019-05-21T02:16:38.772Z,95826.98
2019-05-21T02:19:48.352Z,95827.31
2019-05-21T02:22:55.019Z,95833.77
2019-05-21T02:26:02.015Z,95825.88
2019-05-21T02:29:08.515Z,95834.27
2019-05-21T02:32:15.064Z,95833.53
2019-05-21T02:35:21.760Z,95827.80
2019-05-21T02:38:28.301Z,95824.84
2019-05-21T02:41:34.818Z,95825.26
2019-05-21T02:44:44.633Z,95818.53
2019-05-21T02:47:51.220Z,95824.16
2019-05-21T02:50:57.767Z,95821.59
2019-05-21T02:54:04.404Z,95815.53
2019-05-21T02:57:11.035Z,95813.16
2019-05-21T03:00:38.761Z,95810.23
2019-05-21T03:03:48.005Z,95809.66
2019-05-21T03:06:55.592Z,95807.04
2019-05-21T03:10:03.188Z,95811.24
2019-05-21T03:13:09.837Z,95805.99
2019-05-21T03:16:16.520Z,95799.52
2019-05-21T03:19:23.360Z,95810.91
2019-05-21T03:22:32.094Z,95812.95
2019-05-21T03:25:44.713Z,95811.86
2019-05-21T03:28:52.482Z,95808.59
2019-05-21T03:31:59.005Z,95810.64
2019-05-21T03:35:05.959Z,95807.44
2019-05-21T03:38:12.627Z,95805.71
2019-05-21T03:41:19.146Z,95809.77
2019-05-21T03:44:25.700Z,95808.81
2019-05-21T03:47:32.207Z,95819.60
2019-05-21T03:50:38.855Z,95813.88
2019-05-21T03:53:48.140Z,95811.95
2019-05-21T03:56:54.623Z,95813.12
2019-05-21T04:00:01.253Z,95817.06
2019-05-21T04:03:08.550Z,95815.61
2019-05-21T04:06:15.073Z,95821.73
2019-05-21T04:09:21.622Z,95830.07
2019-05-21T04:12:28.145Z,95820.23
2019-05-21T04:15:36.910Z,95829.42
2019-05-21T04:18:56.986Z,95831.61
2019-05-21T04:22:03.520Z,95833.73
2019-05-21T04:25:10.161Z,95837.35
2019-05-21T04:28:18.883Z,95839.44
2019-05-21T04:31:25.536Z,95843.98
2019-05-21T04:34:32.162Z,95845.98
2019-05-21T04:37:38.739Z,95851.49
2019-05-21T04:40:45.410Z,95854.12
2019-05-21T04:43:51.841Z,95866.27
2019-05-21T04:46:58.353Z,95873.41
2019-05-21T04:50:05.534Z,95875.64
2019-05-21T04:53:12.001Z,95877.36
2019-05-21T04:56:18.522Z,95879.80
2019-05-21T04:59:24.958Z,95881.27
2019-05-21T05:02:31.376Z,95887.89
2019-05-21T05:05:37.972Z,95891.73
2019-05-21T05:08:45.806Z,95895.68
2019-05-21T05:11:52.324Z,95896.77
2019-05-21T05:14:58.872Z,95901.34
2019-05-21T05:18:05.793Z,95901.43
2019-05-21T05:21:12.284Z,95911.81
2019-05-21T05:24:18.816Z,95921.91
2019-05-21T05:27:25.209Z,95923.23
2019-05-21T05:30:31.782Z,95929.02
2019-05-21T05:33:42.809Z,95930.37
2019-05-21T05:36:49.416Z,95928.48
2019-05-21T05:39:55.813Z,95928.27
2019-05-21T05:43:02.329Z,95934.38
2019-05-21T05:46:08.855Z,95936.19
2019-05-21T05:49:20.856Z,95930.58
2019-05-21T05:52:27.437Z,95936.73
2019-05-21T05:55:34.061Z,95939.30
2019-05-21T05:58:40.445Z,95941.45
2019-05-21T06:01:48.706Z,95940.97
2019-05-21T06:04:55.169Z,95945.00
2019-05-21T06:08:01.932Z,95952.13
2019-05-21T06:11:08.400Z,95953.58
2019-05-21T06:14:14.837Z,95957.12
2019-05-21T06:17:21.280Z,95959.67
2019-05-21T06:20:27.920Z,95962.58
2019-05-21T06:23:34.415Z,95966.09
2019-05-21T06:26:43.060Z,95963.78
2019-05-21T06:29:49.149Z,95965.48
2019-05-21T06:32:55.619Z,95965.92
2019-05-21T06:36:02.469Z,95956.86
2019-05-21T06:39:09.431Z,95950.46
2019-05-21T06:42:15.829Z,95948.23
2019-05-21T06:45:22.929Z,95948.14
2019-05-21T06:48:29.428Z,95948.53
2019-05-21T06:51:35.998Z,95958.31
2019-05-21T06:54:43.739Z,95965.33
2019-05-21T06:57:50.651Z,95970.64
2019-05-21T07:00:57.398Z,95972.66
2019-05-21T07:04:03.900Z,95981.13
2019-05-21T07:07:10.470Z,95983.48
2019-05-21T07:10:17.283Z,95987.27
2019-05-21T07:13:23.833Z,95998.84
2019-05-21T07:16:30.430Z,96002.01
2019-05-21T07:19:37.026Z,96002.33
2019-05-21T07:22:44.066Z,95996.90
2019-05-21T07:25:50.552Z,96001.27
2019-05-21T07:28:57.487Z,95995.83
2019-05-21T07:32:04.225Z,96002.44
2019-05-21T07:35:11.099Z,96006.24
2019-05-21T07:38:18.671Z,96005.31
2019-05-21T07:41:25.441Z,96001.56
2019-05-21T07:44:34.620Z,96005.50
2019-05-21T07:47:41.540Z,96015.23
2019-05-21T07:50:47.936Z,96016.43
2019-05-21T07:53:54.614Z,96014.41
2019-05-21T07:57:01.006Z,96015.10
2019-05-21T08:00:09.385Z,96019.61
2019-05-21T08:03:15.893Z,96021.52
2019-05-21T08:06:22.470Z,96021.52
2019-05-21T08:09:29.199Z,96018.31
2019-05-21T08:12:39.389Z,96025.88
2019-05-21T08:15:50.230Z,96035.34
2019-05-21T08:18:56.679Z,96038.82
2019-05-21T08:22:06.461Z,96038.86
2019-05-21T08:25:14.832Z,96047.64
2019-05-21T08:28:22.272Z,96054.58
2019-05-21T08:31:28.726Z,96048.21
2019-05-21T08:34:35.483Z,96053.28
2019-05-21T08:37:42.250Z,96053.08
2019-05-21T08:40:48.916Z,96052.59
2019-05-21T08:43:56.896Z,96061.73
2019-05-21T08:47:03.402Z,96060.80
2019-05-21T08:50:15.150Z,96069.34
2019-05-21T08:53:21.691Z,96074.03
2019-05-21T08:56:28.212Z,96075.20
2019-05-21T08:59:34.834Z,96068.70
2019-05-21T09:02:42.124Z,96071.28
2019-05-21T09:05:48.706Z,96072.40
2019-05-21T09:08:55.213Z,96081.02
2019-05-21T09:12:01.759Z,96082.85
2019-05-21T09:15:09.550Z,96088.23
2019-05-21T09:18:16.039Z,96091.79
2019-05-21T09:21:22.642Z,96092.75
2019-05-21T09:24:29.125Z,96090.75
2019-05-21T09:27:35.759Z,96088.45
2019-05-21T09:30:45.365Z,96092.23
2019-05-21T09:33:51.788Z,96099.11
2019-05-21T09:36:58.536Z,96104.77
2019-05-21T09:40:06.332Z,96109.70
2019-05-21T09:43:13.139Z,96114.83
2019-05-21T09:46:19.759Z,96122.52
2019-05-21T09:49:26.289Z,96122.02
2019-05-21T09:52:32.901Z,96124.16
2019-05-21T09:55:39.512Z,96132.97
2019-05-21T09:58:47.020Z,96136.63
2019-05-21T10:02:00.602Z,96133.39
2019-05-21T10:05:07.396Z,96134.64
2019-05-21T10:08:16.212Z,96132.30
2019-05-21T10:11:23.058Z,96139.57
2019-05-21T10:14:33.720Z,96145.24
2019-05-21T10:17:37.841Z,96147.97
2019-05-21T10:20:47.636Z,96152.23
2019-05-21T10:23:54.463Z,96150.77
2019-05-21T10:27:03.405Z,96158.50
2019-05-21T10:30:10.160Z,96162.18
2019-05-21T10:33:16.609Z,96167.41
2019-05-21T10:36:24.424Z,96163.61
2019-05-21T10:39:30.901Z,96171.92
2019-05-21T10:42:37.661Z,96171.83
2019-05-21T10:45:46.752Z,96165.48
2019-05-21T10:48:53.415Z,96166.30
2019-05-21T10:51:59.832Z,96169.78
2019-05-21T10:55:07.211Z,96180.57
2019-05-21T10:58:13.778Z,96179.02
2019-05-21T11:01:26.552Z,96180.52
2019-05-21T11:04:55.527Z,96181.97
2019-05-21T11:08:22.983Z,96185.18
2019-05-21T11:11:10.425Z,96187.84
2019-05-21T11:14:17.146Z,96194.94
2019-05-21T11:17:24.005Z,96191.45
2019-05-21T11:20:30.634Z,96194.00
2019-05-21T11:23:37.208Z,96195.16
2019-05-21T11:26:46.663Z,96195.13
2019-05-21T11:29:53.165Z,96195.88
2019-05-21T11:32:59.847Z,96197.55
2019-05-21T11:36:07.378Z,96199.59
2019-05-21T11:39:13.992Z,96198.61
2019-05-21T11:42:20.679Z,96199.31
2019-05-21T11:45:32.233Z,96204.52
2019-05-21T11:48:35.854Z,96207.93
2019-05-21T11:51:43.129Z,96211.77
2019-05-21T11:54:50.139Z,96217.25
2019-05-21T11:58:00.141Z,96214.52
2019-05-21T12:01:06.865Z,96214.69
2019-05-21T12:04:14.308Z,96212.55
2019-05-21T12:07:21.115Z,96210.38
2019-05-21T12:10:27.727Z,96210.36
2019-05-21T12:13:34.212Z,96208.07
2019-05-21T12:16:43.714Z,96215.06
2019-05-21T12:19:49.417Z,96211.72
2019-05-21T12:22:55.958Z,96212.60
2019-05-21T12:26:02.588Z,96213.11
2019-05-21T12:29:09.338Z,96216.09
2019-05-21T12:32:15.807Z,96215.09
2019-05-21T12:35:22.623Z,96217.31
2019-05-21T12:38:29.169Z,96225.34
2019-05-21T12:41:35.952Z,96229.29
2019-05-21T12:44:45.408Z,96225.50
2019-05-21T12:47:51.955Z,96227.13
2019-05-21T12:50:59.750Z,96226.70
2019-05-21T12:54:06.591Z,96226.02
2019-05-21T12:57:13.137Z,96225.53
2019-05-21T13:00:20.283Z,96231.75
2019-05-21T13:03:26.822Z,96229.90
2019-05-21T13:06:35.381Z,96236.94
2019-05-21T13:09:43.139Z,96237.56
2019-05-21T13:12:51.263Z,96235.65
2019-05-21T13:15:58.766Z,96240.53
2019-05-21T13:19:05.385Z,96239.66
2019-05-21T13:22:12.048Z,96240.95
2019-05-21T13:25:19.022Z,96242.63
2019-05-21T13:28:25.517Z,96255.05
2019-05-21T13:31:32.057Z,96254.41
2019-05-21T13:34:38.518Z,96257.04
2019-05-21T13:37:46.400Z,96270.17
2019-05-21T13:40:53.810Z,96264.59
2019-05-21T13:44:00.360Z,96269.66
2019-05-21T13:47:07.146Z,96267.88
2019-05-21T13:50:14.121Z,96276.58
2019-05-21T13:53:22.056Z,96274.80
2019-05-21T13:56:28.959Z,96270.12
2019-05-21T13:59:35.792Z,96276.35
2019-05-21T14:02:45.456Z,96276.64
2019-05-21T14:05:52.130Z,96277.47
2019-05-21T14:08:58.731Z,96273.91
2019-05-21T14:12:05.762Z,96280.89
2019-05-21T14:15:13.520Z,96281.95
2019-05-21T14:18:20.106Z,96287.02
2019-05-21T14:21:27.749Z,96284.85
2019-05-21T14:24:34.300Z,96283.83
2019-05-21T14:27:44.905Z,96289.92
2019-05-21T14:30:49.530Z,96278.98
2019-05-21T14:33:56.317Z,96285.92
2019-05-21T14:37:02.816Z,96283.22
2019-05-21T14:40:10.919Z,96281.27
2019-05-21T14:43:17.440Z,96285.78
2019-05-21T14:46:23.962Z,96284.45
2019-05-21T14:49:30.743Z,96282.09
2019-05-21T14:52:37.244Z,96290.92
2019-05-21T14:55:47.830Z,96295.36
2019-05-21T14:58:54.302Z,96297.81
2019-05-21T15:02:00.777Z,96295.50
2019-05-21T15:05:07.721Z,96294.19
2019-05-21T15:08:14.188Z,96291.45
2019-05-21T15:11:20.699Z,96295.53
2019-05-21T15:14:27.219Z,96292.66
2019-05-21T15:17:33.627Z,96294.66
2019-05-21T15:20:51.404Z,96301.62
2019-05-21T15:24:00.152Z,96303.77
2019-05-21T15:27:06.796Z,96301.83
2019-05-21T15:30:13.593Z,96300.14
2019-05-21T15:33:20.167Z,96311.22
2019-05-21T15:36:26.695Z,96305.14
2019-05-21T15:39:33.325Z,96309.44
2019-05-21T15:42:41.879Z,96319.80
2019-05-21T15:45:48.361Z,96320.20
2019-05-21T15:48:54.826Z,96319.44
2019-05-21T15:52:01.444Z,96315.37
2019-05-21T15:55:09.317Z,96321.56
2019-05-21T15:58:16.042Z,96329.53
2019-05-21T16:01:22.601Z,96330.03
2019-05-21T16:04:29.128Z,96333.80
2019-05-21T16:07:35.804Z,96333.93
2019-05-21T16:10:44.230Z,96330.23
2019-05-21T16:13:50.812Z,96332.90
2019-05-21T16:16:57.385Z,96336.39
2019-05-21T16:20:07.112Z,96344.16
2019-05-21T16:23:13.606Z,96339.17
2019-05-21T16:26:23.417Z,96336.00
2019-05-21T16:29:29.742Z,96337.95
2019-05-21T16:32:37.158Z,96342.13
2019-05-21T16:35:45.477Z,96344.70
2019-05-21T16:38:52.066Z,96346.58
2019-05-21T16:41:58.608Z,96343.98
2019-05-21T16:45:05.748Z,96344.43
2019-05-21T16:48:12.340Z,96343.33
2019-05-21T16:51:19.510Z,96351.55
2019-05-21T16:54:28.655Z,96356.98
2019-05-21T16:57:35.588Z,96353.20
2019-05-21T17:00:45.292Z,96363.75
2019-05-21T17:04:00.059Z,96359.39
2019-05-21T17:07:01.862Z,96365.09
2019-05-21T17:10:12.163Z,96368.27
2019-05-21T17:13:18.667Z,96363.72
2019-05-21T17:16:25.750Z,96366.84
2019-05-21T17:19:32.219Z,96377.47
2019-05-21T17:22:38.815Z,96379.77
2019-05-21T17:25:46.852Z,96392.40
2019-05-21T17:28:53.354Z,96393.02
2019-05-21T17:31:59.850Z,96392.30
2019-05-21T17:35:07.019Z,96393.81
2019-05-21T17:38:13.599Z,96393.81
2019-05-21T17:41:20.266Z,96396.16
2019-05-21T17:44:26.825Z,96401.16
2019-05-21T17:47:33.350Z,96403.66
2019-05-21T17:50:39.996Z,96408.38
2019-05-21T17:53:49.109Z,96411.65
2019-05-21T17:56:55.567Z,96418.39
2019-05-21T18:00:02.283Z,96417.84
2019-05-21T18:03:09.088Z,96426.34
2019-05-21T18:06:16.290Z,96425.45
2019-05-21T18:09:26.585Z,96425.67
2019-05-21T18:12:33.023Z,96426.11
2019-05-21T18:15:40.061Z,96430.23
2019-05-21T18:18:46.850Z,96436.66
2019-05-21T18:21:53.810Z,96444.69
2019-05-21T18:25:00.610Z,96451.66
2019-05-21T18:28:07.630Z,96457.14
2019-05-21T18:31:14.486Z,96458.88
2019-05-21T18:34:21.006Z,96452.64
2019-05-21T18:37:28.699Z,96454.58
2019-05-21T18:40:35.251Z,96456.87
2019-05-21T18:43:42.115Z,96462.67
2019-05-21T18:46:48.762Z,96477.88
2019-05-21T18:49:55.631Z,96475.17
2019-05-21T18:53:02.139Z,96491.86
2019-05-21T18:56:08.762Z,96498.63
2019-05-21T18:59:15.331Z,96507.94
2019-05-21T19:02:21.962Z,96520.22
2019-05-21T19:05:29.658Z,96529.23
2019-05-21T19:08:37.630Z,96535.61
2019-05-21T19:11:46.281Z,96533.92
2019-05-21T19:14:53.029Z,96542.61
2019-05-21T19:17:59.608Z,96549.56
2019-05-21T19:21:06.509Z,96558.84
2019-05-21T19:24:13.181Z,96570.25
2019-05-21T19:27:19.844Z,96582.12
2019-05-21T19:30:26.411Z,96591.63
2019-05-21T19:33:34.141Z,96603.08
2019-05-21T19:36:41.263Z,96608.36
2019-05-21T19:43:19.058Z,96624.62
2019-05-21T19:46:25.812Z,96630.80
2019-05-21T19:49:32.367Z,96634.59
2019-05-21T19:52:38.988Z,96641.67
2019-05-21T19:55:45.909Z,96644.89
2019-05-21T19:58:52.681Z,96653.49
2019-05-21T20:01:59.217Z,96657.53
2019-05-21T20:05:06.194Z,96665.59
2019-05-21T20:08:14.507Z,96658.24
2019-05-21T20:11:21.192Z,96660.96
2019-05-21T20:14:30.920Z,96673.12
2019-05-21T20:17:38.827Z,96682.25
2019-05-21T20:20:46.176Z,96679.66
2019-05-21T20:23:56.225Z,96678.47
2019-05-21T20:27:02.807Z,96684.25
2019-05-21T20:30:14.447Z,96689.72
2019-05-21T20:33:20.367Z,96695.01
2019-05-21T20:36:27.542Z,96693.86
2019-05-21T20:39:35.139Z,96699.43
2019-05-21T20:42:47.537Z,96704.59
2019-05-21T20:45:54.980Z,96709.29
2019-05-21T20:49:01.808Z,96707.42
2019-05-21T20:52:18.087Z,96706.17
2019-05-21T20:55:19.058Z,96706.72
2019-05-21T20:58:26.034Z,96705.94
2019-05-21T21:01:32.943Z,96703.06
2019-05-21T21:04:39.801Z,96708.14
2019-05-21T21:07:49.527Z,96712.12
2019-05-21T21:10:56.779Z,96714.20
2019-05-21T21:14:17.445Z,96713.01
2019-05-21T21:17:14.521Z,96717.41
2019-05-21T21:20:21.532Z,96710.91
2019-05-21T21:23:29.817Z,96721.77
2019-05-21T21:26:36.681Z,96722.75
2019-05-21T21:29:44.679Z,96728.95
2019-05-21T21:32:55.235Z,96734.82
2019-05-21T21:36:01.713Z,96733.44
2019-05-21T21:39:10.674Z,96726.25
2019-05-21T21:42:18.273Z,96733.44
2019-05-21T21:45:26.018Z,96734.16
2019-05-21T21:48:32.749Z,96735.09
2019-05-21T21:51:39.506Z,96731.50
2019-05-21T21:54:46.812Z,96737.13
2019-05-21T21:57:54.490Z,96735.19
2019-05-21T22:01:49.422Z,96734.34
2019-05-21T22:04:57.667Z,96734.14
2019-05-21T22:08:05.103Z,96743.19
2019-05-21T22:11:14.784Z,96736.56
2019-05-21T22:14:24.252Z,96745.55
2019-05-21T22:17:31.220Z,96743.55
2019-05-21T22:20:38.225Z,96747.80
2019-05-21T22:23:45.165Z,96746.96
2019-05-21T22:26:51.868Z,96750.92
2019-05-21T22:29:58.663Z,96746.52
2019-05-21T22:33:06.322Z,96745.67
2019-05-21T22:36:12.928Z,96741.81
2019-05-21T22:39:26.892Z,96740.05
2019-05-21T22:42:36.573Z,96749.06
2019-05-21T22:45:46.156Z,96754.30
2019-05-21T22:48:52.776Z,96757.62
2019-05-21T22:51:59.346Z,96753.67
2019-05-21T22:55:06.058Z,96756.43
2019-05-21T22:58:12.913Z,96747.59
2019-05-21T23:01:19.538Z,96756.44
2019-05-21T23:04:26.374Z,96759.55
2019-05-21T23:07:34.675Z,96760.12
2019-05-21T23:10:41.617Z,96758.38
2019-05-21T23:13:52.530Z,96755.81
2019-05-21T23:17:01.042Z,96756.39
2019-05-21T23:20:14.905Z,96749.50
2019-05-21T23:23:25.811Z,96749.89
2019-05-21T23:26:38.035Z,96755.95
2019-05-21T23:29:45.210Z,96753.23
2019-05-21T23:32:52.183Z,96749.77
2019-05-21T23:35:58.979Z,96751.67
2019-05-21T23:39:09.665Z,96750.73
2019-05-21T23:42:28.655Z,96758.69
2019-05-21T23:45:26.970Z,96759.63
2019-05-21T23:48:33.515Z,96754.18
2019-05-21T23:51:41.272Z,96754.31
2019-05-21T23:54:48.094Z,96750.03
2019-05-21T23:57:56.713Z,96755.55
